Terminal Aerodrome Forecast
Issued by NWS

Home | Current Version | Previous Version | Text Only | Print | Product List | Glossary On
Versions: 1 2 3 4 5 6 7 8 9 10 11 12 13 14 15 16 17 18 19
000
FTUS45 KFGZ 231608 AAB
TAFGCN
TAF AMD
KGCN 231608Z 2316/2412 VRB04KT P6SM VCSH SCT025 BKN035
      TEMPO 2316/2318 BKN015
     FM231800 25010G18KT P6SM SCT030 BKN040
      TEMPO 2319/2323 VRB15G25KT 5SM -TSRA OVC030CB
     FM240100 VRB05KT P6SM VCSH BKN050=

USA.gov is the U.S. government's official web portal to all federal, state and local government web resources and services.